Time;durP1;ratioP1;P1;durP2;ratioP2;P2;SDS_P1;SDS_P2;PMS_P1;PMS_P2;Temp;Humidity;BMP_temperature;BMP_pressure;BME280_temperature;BME280_humidity;BME280_pressure;Samples;Min_cycle;Max_cycle;Signal;HPM_P1;HPM_P2
2023/05/22 00:01:05;;;;;;;4.90;2.70;;;;;;;16.21;75.50;99328.14;79746;1294;3013262;-61
2023/05/22 00:03:35;;;;;;;3.40;1.80;;;;;;;16.15;75.40;99331.27;79656;1292;3011778;-62
2023/05/22 00:06:05;;;;;;;2.90;2.20;;;;;;;16.59;75.35;99329.11;78441;1294;3070692;-62
2023/05/22 00:08:31;;;;;;;3.00;2.30;;;;;;;17.07;73.54;99325.70;79743;1289;3013217;-58
2023/05/22 00:10:58;;;;;;;5.10;2.40;;;;;;;17.13;72.96;99320.59;79616;1289;3013521;-60
2023/05/22 00:13:25;;;;;;;6.70;3.00;;;;;;;16.94;72.84;99314.84;78564;1289;3053761;-59
2023/05/22 00:15:52;;;;;;;4.10;2.80;;;;;;;16.65;73.84;99315.80;79731;1295;3013425;-61
2023/05/22 00:18:19;;;;;;;6.40;3.10;;;;;;;16.47;74.21;99314.34;79781;1290;3012339;-61
2023/05/22 00:20:47;;;;;;;4.40;2.90;;;;;;;16.33;74.50;99314.86;78547;1294;3024917;-60
2023/05/22 00:23:14;;;;;;;3.80;2.70;;;;;;;16.18;75.06;99313.38;79666;1292;3013479;-61
2023/05/22 00:25:41;;;;;;;5.10;3.30;;;;;;;16.02;75.61;99306.55;79670;1292;3013732;-61
2023/05/22 00:28:10;;;;;;;2.60;1.70;;;;;;;15.86;76.85;99306.35;78535;1289;3028023;-64
2023/05/22 00:30:38;;;;;;;3.40;2.60;;;;;;;16.36;75.86;99307.24;79699;1292;3012028;-60
2023/05/22 00:33:07;;;;;;;8.60;2.60;;;;;;;16.81;73.75;99305.95;79098;1295;3011650;-60
2023/05/22 00:35:33;;;;;;;6.00;2.30;;;;;;;16.80;73.59;99309.50;79721;1292;3012855;-62
2023/05/22 00:38:02;;;;;;;5.90;3.10;;;;;;;16.61;73.62;99306.63;79701;1289;3011447;-60
2023/05/22 00:40:30;;;;;;;3.60;2.80;;;;;;;16.46;74.00;99312.23;78425;1291;3057118;-62
2023/05/22 00:42:56;;;;;;;4.20;2.90;;;;;;;16.28;74.40;99312.34;79677;1289;3020373;-63
2023/05/22 00:45:23;;;;;;;5.50;2.80;;;;;;;16.11;74.55;99316.05;79670;1292;3011493;-62
2023/05/22 00:47:51;;;;;;;5.70;2.80;;;;;;;15.91;75.51;99318.68;78565;1291;3028870;-62
2023/05/22 00:50:18;;;;;;;4.70;3.10;;;;;;;15.78;75.70;99321.37;79680;1293;3013673;-61
2023/05/22 00:52:45;;;;;;;5.70;2.20;;;;;;;15.65;76.49;99321.52;79564;1294;3013147;-63
2023/05/22 00:55:13;;;;;;;3.30;2.00;;;;;;;16.10;75.96;99320.20;78380;1295;3028183;-63
2023/05/22 00:57:40;;;;;;;4.10;2.30;;;;;;;16.58;73.85;99315.50;79782;1289;3019057;-61
2023/05/22 01:00:11;;;;;;;3.00;2.00;;;;;;;16.62;73.50;99311.69;79715;1289;3012209;-62
2023/05/22 01:02:41;;;;;;;3.40;2.50;;;;;;;16.38;73.46;99312.30;78505;1295;3052509;-61
2023/05/22 01:05:11;;;;;;;4.40;2.80;;;;;;;16.19;74.33;99312.54;79700;1294;3012561;-60
2023/05/22 01:07:39;;;;;;;4.20;2.90;;;;;;;15.92;75.44;99313.41;78717;1289;3067108;-61
2023/05/22 01:10:07;;;;;;;4.30;3.00;;;;;;;15.75;76.27;99317.89;79658;1291;3018190;-61
2023/05/22 01:12:37;;;;;;;4.60;2.60;;;;;;;15.58;76.95;99315.96;79827;1291;3011800;-61
2023/05/22 01:15:10;;;;;;;2.60;1.40;;;;;;;15.48;77.43;99316.25;78460;1294;3053218;-60
2023/05/22 01:17:45;;;;;;;3.90;2.00;;;;;;;15.98;76.35;99312.55;79608;1291;3012031;-62
2023/05/22 01:20:35;;;;;;;2.60;2.00;;;;;;;16.52;74.53;99315.20;78390;1297;3053023;-59
2023/05/22 01:23:25;;;;;;;3.50;2.40;;;;;;;16.50;73.75;99311.52;78428;1295;3052560;-60
2023/05/22 01:26:13;;;;;;;3.50;2.50;;;;;;;16.06;75.26;99311.59;78466;1294;3068933;-60
2023/05/22 01:28:53;;;;;;;5.00;2.70;;;;;;;15.90;75.53;99308.72;78685;1294;3051785;-59
2023/05/22 01:31:29;;;;;;;7.10;3.40;;;;;;;15.58;76.89;99311.90;78721;1294;3056603;-61
2023/05/22 01:33:59;;;;;;;3.50;2.70;;;;;;;15.32;78.18;99308.01;78416;1294;3048614;-62
2023/05/22 01:36:30;;;;;;;6.80;2.80;;;;;;;15.15;79.16;99314.00;79667;1292;3013240;-61
2023/05/22 01:39:03;;;;;;;3.30;1.90;;;;;;;15.02;80.01;99320.17;78398;1294;3049712;-61
2023/05/22 01:41:29;;;;;;;4.40;2.30;;;;;;;15.52;79.03;99310.42;79590;1295;3013346;-60
2023/05/22 01:43:59;;;;;;;3.00;2.40;;;;;;;15.95;76.83;99310.23;79207;1292;3011619;-58
2023/05/22 01:46:29;;;;;;;3.20;2.20;;;;;;;15.96;76.23;99307.60;79671;1295;3012135;-59
2023/05/22 01:48:57;;;;;;;3.20;2.20;;;;;;;15.97;76.21;99309.48;78227;1291;3056830;-57
2023/05/22 01:51:55;;;;;;;5.90;2.70;;;;;;;15.84;76.14;99314.14;79629;1291;3013436;-60
2023/05/22 01:54:29;;;;;;;6.00;2.70;;;;;;;15.57;77.09;99314.65;78386;1293;3050507;-60
2023/05/22 01:57:01;;;;;;;4.40;2.60;;;;;;;15.34;78.38;99310.88;79645;1294;3011798;-63
2023/05/22 01:59:47;;;;;;;3.80;2.50;;;;;;;15.09;79.27;99310.73;78400;1295;3053052;-60
2023/05/22 02:02:17;;;;;;;4.30;1.50;;;;;;;15.08;80.26;99317.90;78343;1294;3069426;-59
2023/05/22 02:05:10;;;;;;;5.30;1.60;;;;;;;15.86;78.23;99316.77;79484;1293;3012985;-60
2023/05/22 02:07:39;;;;;;;3.70;2.00;;;;;;;16.42;75.08;99313.23;78403;1292;3056522;-60
2023/05/22 02:10:08;;;;;;;3.10;2.10;;;;;;;16.44;74.42;99312.52;79663;1289;3012644;-61
2023/05/22 02:12:38;;;;;;;6.70;2.80;;;;;;;16.07;74.92;99311.63;78811;1289;3051792;-61
2023/05/22 02:15:06;;;;;;;4.70;2.60;;;;;;;15.86;76.10;99308.67;79626;1295;3012870;-58
2023/05/22 02:17:40;;;;;;;4.10;2.60;;;;;;;15.73;76.61;99309.53;79619;1289;3011892;-61
2023/05/22 02:20:13;;;;;;;4.70;2.90;;;;;;;15.59;77.27;99309.48;78350;1295;3067402;-60
2023/05/22 02:22:42;;;;;;;4.40;3.10;;;;;;;15.51;77.62;99310.53;79756;1289;3011577;-62
2023/05/22 02:25:13;;;;;;;3.50;1.80;;;;;;;15.37;78.32;99309.71;78379;1295;3056049;-61
2023/05/22 02:27:45;;;;;;;7.30;1.90;;;;;;;15.84;77.42;99310.40;79660;1293;3013181;-61
2023/05/22 02:30:13;;;;;;;4.70;2.60;;;;;;;16.28;75.35;99310.71;81056;1289;3051925;-60
2023/05/22 02:32:41;;;;;;;7.20;2.70;;;;;;;16.33;75.35;99310.50;82288;1292;3012606;-63
2023/05/22 02:35:08;;;;;;;3.90;3.00;;;;;;;16.33;75.06;99305.73;82362;1293;3011314;-62
2023/05/22 02:37:36;;;;;;;6.60;4.00;;;;;;;16.16;75.25;99308.27;81075;1289;3068053;-59
2023/05/22 02:40:06;;;;;;;7.30;3.50;;;;;;;15.97;75.83;99305.08;82254;1289;3013117;-60
2023/05/22 02:42:35;;;;;;;5.30;3.80;;;;;;;15.87;76.33;99306.48;81833;1289;3011434;-61
2023/05/22 02:45:02;;;;;;;7.30;4.10;;;;;;;15.80;76.62;99309.73;82283;1292;3013196;-61
2023/05/22 02:47:29;;;;;;;4.20;2.30;;;;;;;15.63;77.68;99310.92;82231;1289;3010931;-59
2023/05/22 02:49:58;;;;;;;4.80;2.70;;;;;;;16.06;77.16;99314.20;80995;1291;3051291;-60
2023/05/22 02:52:24;;;;;;;4.30;2.60;;;;;;;16.67;74.95;99308.70;82368;1289;3012944;-61
2023/05/22 02:54:50;;;;;;;5.30;3.40;;;;;;;16.86;73.90;99309.69;82222;1289;3011527;-59
2023/05/22 02:57:19;;;;;;;5.90;3.70;;;;;;;16.78;73.72;99311.01;81032;1289;3025755;-61
2023/05/22 02:59:45;;;;;;;4.10;3.40;;;;;;;16.62;74.19;99303.89;82249;1289;3018013;-60
2023/05/22 03:02:14;;;;;;;6.90;3.50;;;;;;;16.50;74.06;99305.80;82259;1289;3011923;-61
2023/05/22 03:04:42;;;;;;;7.10;3.60;;;;;;;16.31;74.80;99311.75;81071;1294;3052665;-60
2023/05/22 03:07:11;;;;;;;9.30;4.10;;;;;;;16.20;75.37;99312.07;82264;1292;3013069;-61
2023/05/22 03:09:38;;;;;;;4.40;4.00;;;;;;;16.13;75.77;99314.88;82352;1289;3011285;-62
2023/05/22 03:12:07;;;;;;;8.00;4.00;;;;;;;16.03;76.13;99316.40;80985;1289;3055547;-59
2023/05/22 03:14:34;;;;;;;4.20;2.50;;;;;;;15.98;76.97;99319.80;82359;1289;3012565;-61
2023/05/22 03:17:00;;;;;;;5.90;3.00;;;;;;;16.56;75.50;99320.47;82222;1289;3011338;-63
2023/05/22 03:19:28;;;;;;;3.20;2.70;;;;;;;17.13;73.27;99322.20;80975;1291;3025812;-58
2023/05/22 03:21:55;;;;;;;4.90;3.10;;;;;;;17.28;72.43;99316.25;82366;1289;3018385;-60
2023/05/22 03:24:22;;;;;;;6.00;3.90;;;;;;;17.22;72.19;99323.17;82243;1289;3011388;-61
2023/05/22 03:26:50;;;;;;;5.30;3.70;;;;;;;17.04;72.36;99318.97;80963;1290;3026267;-61
2023/05/22 03:29:21;;;;;;;7.20;3.90;;;;;;;16.86;72.95;99313.62;82298;1289;3011118;-62
2023/05/22 03:31:48;;;;;;;9.70;4.00;;;;;;;16.71;73.57;99315.11;80997;1289;3053059;-61
2023/05/22 03:34:15;;;;;;;5.40;4.30;;;;;;;16.55;74.13;99313.17;82351;1292;3012437;-61
2023/05/22 03:36:44;;;;;;;8.80;4.30;;;;;;;16.39;74.72;99309.73;82252;1291;3011334;-62
2023/05/22 03:39:12;;;;;;;4.80;3.50;;;;;;;16.21;75.64;99313.83;81005;1289;3068234;-60
2023/05/22 03:41:44;;;;;;;4.60;2.20;;;;;;;16.11;76.65;99312.91;82276;1289;3011381;-59
2023/05/22 03:44:12;;;;;;;3.70;2.40;;;;;;;16.48;75.42;99307.02;80985;1289;3056554;-60
2023/05/22 03:46:39;;;;;;;5.30;3.00;;;;;;;17.12;73.30;99308.13;82279;1289;3019103;-60
2023/05/22 03:49:06;;;;;;;4.80;2.80;;;;;;;17.29;72.08;99305.56;82280;1289;3011267;-61
2023/05/22 03:51:34;;;;;;;5.20;3.00;;;;;;;17.10;72.50;99302.69;81091;1292;3026561;-60
2023/05/22 03:54:00;;;;;;;3.70;2.90;;;;;;;16.68;73.37;99304.58;82363;1289;3013124;-61
2023/05/22 03:56:27;;;;;;;3.70;3.00;;;;;;;16.38;74.64;99302.63;82210;1289;3011216;-61
2023/05/22 03:58:55;;;;;;;4.90;3.20;;;;;;;16.23;75.49;99304.48;81010;1289;3025286;-61
2023/05/22 04:01:22;;;;;;;7.70;3.30;;;;;;;16.22;76.05;99304.33;82238;1289;3012673;-61
2023/05/22 04:03:49;;;;;;;3.30;2.90;;;;;;;16.19;76.02;99302.64;82339;1289;3011165;-61
2023/05/22 04:06:20;;;;;;;5.50;3.00;;;;;;;16.02;76.27;99297.76;81129;1292;3053482;-60
2023/05/22 04:08:47;;;;;;;4.40;1.80;;;;;;;15.98;76.75;99305.55;82300;1291;3011137;-58
2023/05/22 04:11:17;;;;;;;3.50;2.70;;;;;;;16.60;75.10;99309.52;81777;1289;3011542;-61
2023/05/22 04:13:43;;;;;;;3.00;2.30;;;;;;;17.20;73.05;99310.38;82303;1289;3012637;-63
2023/05/22 04:16:10;;;;;;;3.40;2.40;;;;;;;17.03;72.21;99309.45;82240;1289;3011191;-62
2023/05/22 04:18:38;;;;;;;4.50;2.50;;;;;;;17.01;72.66;99313.21;81094;1294;3052448;-60
2023/05/22 04:21:08;;;;;;;4.30;2.80;;;;;;;16.95;73.00;99313.73;82224;1295;3012818;-60
2023/05/22 04:23:37;;;;;;;4.60;2.70;;;;;;;16.93;72.68;99313.02;81753;1291;3011222;-58
2023/05/22 04:26:07;;;;;;;4.60;2.70;;;;;;;16.68;73.64;99313.65;82354;1293;3012425;-60
2023/05/22 04:28:35;;;;;;;6.20;2.90;;;;;;;16.58;74.36;99314.44;81034;1289;3050918;-61
2023/05/22 04:31:05;;;;;;;4.70;2.60;;;;;;;16.48;74.75;99317.67;82409;1289;3013120;-58
2023/05/22 04:33:34;;;;;;;5.90;2.90;;;;;;;16.47;74.41;99310.13;81842;1289;3011382;-60
2023/05/22 04:36:01;;;;;;;3.30;2.70;;;;;;;16.49;74.26;99315.84;82258;1289;3012687;-62
2023/05/22 04:38:28;;;;;;;2.70;1.90;;;;;;;16.50;74.38;99312.69;82354;1289;3011292;-60
2023/05/22 04:40:56;;;;;;;5.60;2.20;;;;;;;17.01;73.59;99311.56;81124;1290;3052979;-61
2023/05/22 04:43:25;;;;;;;4.30;2.10;;;;;;;17.65;70.87;99307.87;82249;1291;3012719;-62
2023/05/22 04:45:55;;;;;;;3.00;2.30;;;;;;;17.60;70.72;99303.74;81848;1289;3011371;-61
2023/05/22 04:48:21;;;;;;;4.10;2.40;;;;;;;17.72;70.18;99303.39;82266;1289;3013107;-60
2023/05/22 04:50:48;;;;;;;3.70;2.40;;;;;;;17.68;69.72;99308.91;82332;1289;3011160;-59
2023/05/22 04:53:16;;;;;;;3.50;2.60;;;;;;;17.60;70.58;99309.48;80979;1289;3048904;-62
2023/05/22 04:55:44;;;;;;;6.00;3.30;;;;;;;17.63;70.21;99309.67;82412;1290;3012542;-61
2023/05/22 04:58:11;;;;;;;4.40;2.80;;;;;;;17.56;70.73;99307.16;82231;1291;3011763;-61
2023/05/22 05:00:39;;;;;;;3.80;3.20;;;;;;;17.42;70.87;99303.15;81029;1289;3051748;-61
2023/05/22 05:03:06;;;;;;;5.40;2.90;;;;;;;17.36;71.45;99303.33;82284;1289;3011390;-61
2023/05/22 05:05:33;;;;;;;4.30;2.70;;;;;;;17.41;71.01;99305.33;82224;1295;3011335;-60
2023/05/22 05:08:03;;;;;;;5.30;2.70;;;;;;;17.44;71.12;99307.73;80992;1289;3049865;-60
2023/05/22 05:10:30;;;;;;;5.10;3.00;;;;;;;17.50;71.13;99308.90;82275;1291;3013136;-63
2023/05/22 05:12:56;;;;;;;5.30;3.40;;;;;;;17.56;71.00;99309.02;82230;1289;3011298;-61
2023/05/22 05:15:26;;;;;;;5.20;3.50;;;;;;;17.60;70.89;99311.20;80967;1289;3026195;-59
2023/05/22 05:17:52;;;;;;;2.10;1.60;;;;;;;17.65;70.89;99310.92;82286;1289;3013279;-58
2023/05/22 05:20:19;;;;;;;3.60;1.80;;;;;;;18.27;68.99;99313.48;82381;1289;3012333;-63
2023/05/22 05:22:48;;;;;;;4.00;2.60;;;;;;;18.93;67.33;99311.60;80951;1289;3049828;-61
2023/05/22 05:25:15;;;;;;;6.20;3.00;;;;;;;19.11;66.19;99312.52;82261;1296;3012722;-60
2023/05/22 05:27:42;;;;;;;5.90;3.30;;;;;;;19.12;66.10;99311.00;82236;1291;3011007;-60
2023/05/22 05:30:10;;;;;;;6.80;3.40;;;;;;;19.08;66.19;99312.83;80926;1289;3025858;-61
2023/05/22 05:32:58;;;;;;;5.30;3.00;;;;;;;18.95;67.00;99306.98;80818;1295;3055349;-60
2023/05/22 05:35:45;;;;;;;4.70;3.20;;;;;;;18.97;66.18;99310.83;81042;1291;3048680;-60
2023/05/22 05:38:13;;;;;;;3.70;2.80;;;;;;;19.02;65.73;99315.37;82197;1292;3012972;-59
2023/05/22 05:40:44;;;;;;;8.20;3.40;;;;;;;19.00;65.38;99308.99;81682;1295;3011158;-61
2023/05/22 05:43:14;;;;;;;4.70;2.80;;;;;;;18.97;65.29;99302.13;82257;1294;3011225;-61
2023/05/22 05:45:42;;;;;;;9.60;3.00;;;;;;;18.93;65.45;99306.80;80933;1292;3068680;-61
2023/05/22 05:48:10;;;;;;;7.30;3.00;;;;;;;18.99;65.52;99306.23;82251;1291;3012587;-60
2023/05/22 05:50:41;;;;;;;8.10;2.90;;;;;;;19.06;64.90;99307.52;80949;1292;3049200;-58
2023/05/22 05:53:09;;;;;;;6.30;2.80;;;;;;;19.02;65.16;99303.09;82218;1292;3012509;-62
2023/05/22 05:55:35;;;;;;;6.50;4.00;;;;;;;19.02;65.33;99301.13;82177;1292;3011679;-62
2023/05/22 05:58:04;;;;;;;4.60;3.10;;;;;;;19.10;65.29;99304.66;80938;1294;3052697;-62
2023/05/22 06:00:47;;;;;;;6.00;2.30;;;;;;;19.15;64.98;99298.09;80941;1290;3069736;-61
2023/05/22 06:03:14;;;;;;;4.40;2.50;;;;;;;19.21;64.72;99299.98;82232;1291;3012590;-64
2023/05/22 06:06:08;;;;;;;7.20;2.50;;;;;;;19.23;63.93;99293.02;81037;1291;3049248;-62
2023/05/22 06:08:56;;;;;;;4.00;2.50;;;;;;;19.25;64.21;99292.52;81002;1292;3053378;-63
2023/05/22 06:11:27;;;;;;;5.30;2.80;;;;;;;19.29;64.46;99288.38;82191;1289;3011283;-63
2023/05/22 06:13:56;;;;;;;6.90;3.00;;;;;;;19.37;64.38;99292.70;80980;1292;3051924;-63
2023/05/22 06:16:24;;;;;;;3.30;2.10;;;;;;;19.40;63.76;99294.52;82242;1295;3013020;-62
2023/05/22 06:18:51;;;;;;;4.50;2.30;;;;;;;19.41;63.51;99296.17;82264;1289;3011469;-63
2023/05/22 06:21:20;;;;;;;6.60;2.80;;;;;;;19.48;63.07;99298.68;80959;1289;3056222;-63
2023/05/22 06:23:47;;;;;;;6.30;2.60;;;;;;;19.36;63.33;99301.48;82289;1292;3012528;-62
2023/05/22 06:26:14;;;;;;;5.40;2.40;;;;;;;19.39;63.96;99300.98;82202;1291;3011257;-63
2023/05/22 06:28:43;;;;;;;6.40;2.30;;;;;;;19.41;63.40;99300.27;80922;1296;3051994;-62
2023/05/22 06:31:10;;;;;;;3.90;2.40;;;;;;;19.38;63.46;99300.59;82301;1292;3012853;-61
2023/05/22 06:33:39;;;;;;;4.80;2.80;;;;;;;19.44;63.17;99298.46;82281;1289;3011160;-64
2023/05/22 06:36:07;;;;;;;4.90;2.60;;;;;;;19.47;63.18;99298.82;81006;1289;3057146;-63
2023/05/22 06:38:36;;;;;;;4.80;2.90;;;;;;;19.59;62.89;99296.25;82258;1295;3012638;-62
2023/05/22 06:41:06;;;;;;;4.10;2.30;;;;;;;19.68;62.53;99296.20;81694;1292;3011274;-63
2023/05/22 06:43:33;;;;;;;4.80;2.20;;;;;;;19.75;61.95;99297.92;82218;1297;3012595;-62
2023/05/22 06:46:08;;;;;;;4.00;2.00;;;;;;;19.85;61.87;99295.02;80961;1292;3052711;-63
2023/05/22 06:48:40;;;;;;;4.60;2.60;;;;;;;19.92;61.13;99293.93;82306;1295;3011263;-61
2023/05/22 06:51:28;;;;;;;4.90;2.50;;;;;;;19.93;61.15;99296.20;81080;1289;3050771;-60
2023/05/22 06:54:05;;;;;;;4.70;2.60;;;;;;;19.76;61.72;99290.94;81740;1289;3011324;-61
2023/05/22 06:56:32;;;;;;;4.20;2.50;;;;;;;19.88;61.68;99287.97;82200;1295;3013258;-63
2023/05/22 06:59:05;;;;;;;4.70;2.80;;;;;;;20.04;61.57;99286.52;80995;1289;3048547;-63
2023/05/22 07:01:56;;;;;;;4.50;2.50;;;;;;;20.24;60.97;99287.81;80859;1289;3053335;-61
2023/05/22 07:04:42;;;;;;;4.50;2.70;;;;;;;20.33;60.53;99286.56;81074;1291;3050507;-61
2023/05/22 07:07:13;;;;;;;5.40;2.50;;;;;;;20.36;60.15;99286.24;82257;1289;3011325;-63
2023/05/22 07:09:41;;;;;;;3.70;2.20;;;;;;;20.48;60.17;99291.95;80983;1295;3026096;-62
2023/05/22 07:12:08;;;;;;;6.20;2.30;;;;;;;20.52;60.19;99292.27;82193;1294;3013506;-61
2023/05/22 07:14:34;;;;;;;4.40;2.40;;;;;;;20.51;60.05;99291.05;82214;1291;3011508;-60
2023/05/22 07:17:03;;;;;;;4.90;2.80;;;;;;;20.56;60.47;99289.67;80977;1290;3026036;-61
2023/05/22 07:19:34;;;;;;;4.40;2.60;;;;;;;20.67;59.70;99287.45;82202;1291;3011418;-60
2023/05/22 07:22:04;;;;;;;8.10;2.60;;;;;;;20.66;59.34;99285.94;80938;1292;3050054;-62
2023/05/22 07:24:31;;;;;;;7.50;2.70;;;;;;;20.70;59.29;99282.89;80264;1292;3039222;-59
2023/05/22 07:26:58;;;;;;;4.30;2.40;;;;;;;20.78;58.99;99282.73;82243;1295;3011428;-63
2023/05/22 07:29:27;;;;;;;3.70;2.50;;;;;;;20.79;58.13;99284.19;81045;1292;3051959;-62
2023/05/22 07:31:54;;;;;;;4.70;2.80;;;;;;;20.92;58.82;99285.23;82246;1292;3012712;-61
2023/05/22 07:34:21;;;;;;;3.40;2.50;;;;;;;20.96;57.79;99281.42;82200;1295;3011437;-63
2023/05/22 07:36:50;;;;;;;4.50;2.80;;;;;;;21.04;58.14;99290.13;80929;1292;3048861;-67
2023/05/22 07:39:17;;;;;;;6.70;2.20;;;;;;;21.16;57.81;99291.19;82208;1297;3013018;-64
2023/05/22 07:41:48;;;;;;;8.70;3.10;;;;;;;21.13;57.66;99290.92;82211;1292;3011187;-63
2023/05/22 07:44:16;;;;;;;3.60;2.50;;;;;;;21.16;57.56;99286.52;80950;1293;3050610;-65
2023/05/22 07:46:43;;;;;;;4.90;2.50;;;;;;;21.27;57.12;99285.02;82289;1291;3012472;-64
2023/05/22 07:49:15;;;;;;;4.20;2.50;;;;;;;21.26;57.47;99288.83;82261;1292;3011233;-63
2023/05/22 07:51:42;;;;;;;6.70;2.30;;;;;;;21.23;57.38;99289.15;80958;1297;3049183;-66
2023/05/22 07:54:09;;;;;;;6.30;2.50;;;;;;;21.23;57.38;99288.98;82238;1295;3018676;-61
2023/05/22 07:56:40;;;;;;;6.90;2.70;;;;;;;21.33;57.47;99283.79;82225;1295;3011476;-64
2023/05/22 07:59:10;;;;;;;4.80;2.40;;;;;;;21.40;56.79;99283.95;81018;1291;3043749;-64
2023/05/22 08:01:38;;;;;;;7.20;2.60;;;;;;;21.41;56.43;99286.48;82262;1291;3011403;-64
2023/05/22 08:04:07;;;;;;;6.90;2.50;;;;;;;21.33;56.75;99285.18;81755;1290;3011413;-63
2023/05/22 08:06:33;;;;;;;12.50;2.90;;;;;;;21.50;57.23;99289.49;82277;1292;3013042;-65
2023/05/22 08:09:01;;;;;;;7.10;2.90;;;;;;;21.57;56.33;99286.91;82285;1292;3012924;-61
2023/05/22 08:11:29;;;;;;;7.90;2.60;;;;;;;21.69;56.41;99283.27;81052;1295;3052441;-65
2023/05/22 08:13:56;;;;;;;7.70;2.60;;;;;;;21.78;55.77;99287.52;82378;1294;3013335;-62
2023/05/22 08:16:22;;;;;;;6.70;2.80;;;;;;;21.88;55.89;99283.39;82367;1295;3011364;-63
2023/05/22 08:18:50;;;;;;;8.90;2.70;;;;;;;21.97;55.15;99284.37;81094;1294;3048113;-62
2023/05/22 08:21:17;;;;;;;4.30;2.50;;;;;;;22.16;54.01;99283.60;82385;1290;3011380;-65
2023/05/22 08:23:43;;;;;;;7.60;2.80;;;;;;;22.11;54.54;99283.61;82353;1289;3011433;-63
2023/05/22 08:26:11;;;;;;;7.00;2.60;;;;;;;22.23;54.69;99285.92;81115;1294;3025877;-62
2023/05/22 08:28:42;;;;;;;6.40;3.20;;;;;;;22.38;54.24;99287.27;82400;1289;3012567;-65
2023/05/22 08:31:11;;;;;;;6.40;2.90;;;;;;;22.39;53.26;99287.11;81093;1289;3057272;-66
2023/05/22 08:33:38;;;;;;;6.00;2.90;;;;;;;22.52;52.77;99287.10;82348;1289;3012794;-63
2023/05/22 08:36:05;;;;;;;5.40;2.90;;;;;;;22.69;52.80;99287.70;82336;1289;3011165;-62
2023/05/22 08:38:33;;;;;;;7.60;2.50;;;;;;;22.92;52.30;99290.19;81095;1294;3052369;-65
2023/05/22 08:40:59;;;;;;;8.10;2.90;;;;;;;23.01;51.99;99285.23;82390;1289;3018406;-63
2023/05/22 08:43:27;;;;;;;10.10;2.90;;;;;;;22.94;51.80;99283.08;82365;1294;3011053;-63
2023/05/22 08:45:59;;;;;;;7.00;2.70;;;;;;;22.88;51.77;99286.23;80996;1289;3055769;-65
2023/05/22 08:48:28;;;;;;;6.10;2.50;;;;;;;22.99;51.41;99283.52;82247;1290;3011468;-64
2023/05/22 08:50:57;;;;;;;5.70;2.80;;;;;;;22.97;50.88;99280.94;81021;1289;3051882;-65
2023/05/22 08:53:25;;;;;;;6.60;3.00;;;;;;;23.07;50.92;99287.30;82390;1289;3011343;-64
2023/05/22 08:55:52;;;;;;;4.40;2.70;;;;;;;23.09;50.97;99285.48;82262;1293;3011381;-63
2023/05/22 08:58:21;;;;;;;3.40;2.50;;;;;;;23.01;51.91;99284.63;81007;1290;3068875;-64
2023/05/22 09:00:48;;;;;;;4.90;2.30;;;;;;;23.14;50.97;99286.48;82281;1289;3013425;-65
2023/05/22 09:03:14;;;;;;;5.30;2.10;;;;;;;23.20;50.08;99277.71;82241;1289;3011354;-65
2023/05/22 09:05:42;;;;;;;3.30;1.90;;;;;;;23.20;49.43;99281.10;81106;1289;3026142;-63
2023/05/22 09:08:08;;;;;;;6.00;2.50;;;;;;;23.27;49.46;99279.40;82235;1293;3012472;-62
2023/05/22 09:10:35;;;;;;;6.30;2.40;;;;;;;23.47;49.80;99275.45;82373;1291;3011059;-64
2023/05/22 09:13:04;;;;;;;9.40;3.20;;;;;;;23.72;49.93;99269.31;81126;1289;3026336;-66
2023/05/22 09:15:32;;;;;;;3.70;2.60;;;;;;;23.94;49.55;99267.77;82387;1290;3011225;-63
2023/05/22 09:17:59;;;;;;;7.80;2.70;;;;;;;24.02;49.41;99267.05;82407;1289;3011360;-66
2023/05/22 09:20:27;;;;;;;3.80;2.20;;;;;;;24.12;49.01;99267.42;81106;1289;3054653;-65
2023/05/22 09:22:53;;;;;;;4.20;2.00;;;;;;;24.34;48.08;99263.82;82371;1295;3013065;-64
2023/05/22 09:25:20;;;;;;;3.90;1.60;;;;;;;24.53;45.85;99262.98;82350;1289;3011242;-62
2023/05/22 09:27:48;;;;;;;7.30;2.10;;;;;;;24.70;45.25;99260.36;81104;1289;3026176;-61
2023/05/22 09:30:18;;;;;;;3.10;1.90;;;;;;;24.95;45.26;99263.45;82347;1289;3013053;-62
2023/05/22 09:32:47;;;;;;;4.10;1.70;;;;;;;25.20;44.98;99259.96;81835;1289;3011263;-63
2023/05/22 09:35:14;;;;;;;2.60;1.70;;;;;;;25.28;44.13;99260.61;82378;1292;3013094;-62
2023/05/22 09:37:40;;;;;;;6.40;2.20;;;;;;;25.38;43.95;99254.55;82349;1289;3011233;-64
2023/05/22 09:40:12;;;;;;;2.30;1.80;;;;;;;25.46;44.05;99257.85;81079;1290;3025752;-61
2023/05/22 09:42:43;;;;;;;8.30;2.50;;;;;;;25.45;42.96;99255.45;82296;1293;3011498;-63
2023/05/22 09:45:11;;;;;;;6.60;1.80;;;;;;;25.44;43.27;99249.98;81054;1291;3068784;-64
2023/05/22 09:47:39;;;;;;;3.30;1.40;;;;;;;25.38;42.56;99249.84;82353;1289;3013230;-63
2023/05/22 09:50:08;;;;;;;5.20;2.00;;;;;;;25.39;42.03;99252.60;82312;1296;3011230;-63
2023/05/22 09:52:36;;;;;;;7.50;1.80;;;;;;;25.39;41.79;99248.33;81089;1289;3051066;-65
2023/05/22 09:55:07;;;;;;;5.10;1.90;;;;;;;25.31;42.50;99246.21;82345;1292;3018342;-61
2023/05/22 09:57:43;;;;;;;4.40;1.70;;;;;;;25.17;42.35;99247.20;81082;1290;3053094;-63
2023/05/22 10:00:14;;;;;;;3.50;1.50;;;;;;;25.05;42.56;99243.88;81803;1292;3011208;-62
2023/05/22 10:02:42;;;;;;;2.70;1.50;;;;;;;25.06;42.44;99243.67;82343;1292;3011068;-63
2023/05/22 10:05:14;;;;;;;2.80;1.40;;;;;;;25.16;42.44;99237.93;81894;1289;3012814;-65
2023/05/22 10:07:44;;;;;;;5.30;1.40;;;;;;;25.22;41.76;99233.85;82368;1289;3011443;-61
2023/05/22 10:10:17;;;;;;;1.70;1.20;;;;;;;25.23;41.51;99233.77;81059;1289;3056524;-66
2023/05/22 10:12:55;;;;;;;3.10;1.50;;;;;;;25.19;41.84;99234.30;82336;1289;3011788;-60
2023/05/22 10:15:23;;;;;;;2.40;1.40;;;;;;;25.35;41.85;99233.39;81001;1289;3052889;-65
2023/05/22 10:17:50;;;;;;;2.30;1.20;;;;;;;25.47;41.42;99229.14;82210;1292;3018151;-62
2023/05/22 10:20:16;;;;;;;4.70;1.80;;;;;;;25.72;40.63;99223.81;82265;1292;3011495;-64
2023/05/22 10:22:45;;;;;;;3.00;1.70;;;;;;;25.90;40.20;99222.41;81079;1289;3026465;-63
2023/05/22 10:25:12;;;;;;;5.30;1.60;;;;;;;25.89;40.31;99222.95;82354;1289;3012605;-67
2023/05/22 10:27:38;;;;;;;3.00;1.50;;;;;;;25.71;40.59;99218.09;82323;1289;3011364;-66
2023/05/22 10:30:27;;;;;;;3.40;1.10;;;;;;;25.78;39.94;99213.95;80949;1289;3053592;-67
2023/05/22 10:33:21;;;;;;;5.90;1.50;;;;;;;25.76;39.56;99210.92;80993;1289;3050116;-64
2023/05/22 10:35:52;;;;;;;3.80;1.70;;;;;;;25.81;40.05;99213.39;82328;1289;3011214;-65
2023/05/22 10:38:41;;;;;;;3.70;1.70;;;;;;;25.90;39.76;99207.39;80976;1292;3052170;-67
2023/05/22 10:41:09;;;;;;;5.90;1.80;;;;;;;26.07;38.86;99204.48;80965;1290;3068853;-63
2023/05/22 10:43:42;;;;;;;4.20;1.20;;;;;;;26.33;37.84;99202.34;82270;1289;3012712;-62
2023/05/22 10:46:11;;;;;;;1.60;1.30;;;;;;;26.49;37.52;99201.31;81068;1289;3050029;-64
2023/05/22 10:48:38;;;;;;;4.80;1.30;;;;;;;26.66;36.90;99200.69;82342;1289;3012859;-63
2023/05/22 10:51:07;;;;;;;2.60;1.20;;;;;;;26.81;36.73;99192.86;82351;1289;3011618;-65
2023/05/22 10:53:35;;;;;;;3.80;1.20;;;;;;;26.91;36.76;99193.95;81092;1289;3051704;-64
2023/05/22 10:56:12;;;;;;;3.20;1.30;;;;;;;26.91;37.24;99193.70;82391;1289;3018060;-62
2023/05/22 10:58:56;;;;;;;2.40;1.40;;;;;;;26.98;37.22;99195.02;81048;1289;3057034;-64
2023/05/22 11:01:24;;;;;;;2.90;1.40;;;;;;;27.06;37.17;99183.50;80998;1289;3049199;-64
2023/05/22 11:03:57;;;;;;;3.80;1.70;;;;;;;27.18;36.67;99184.91;82233;1289;3011295;-64
2023/05/22 11:06:39;;;;;;;11.40;1.30;;;;;;;27.20;36.51;99178.23;81067;1289;3049130;-64
2023/05/22 11:09:20;;;;;;;5.80;1.30;;;;;;;27.30;36.70;99177.02;81076;1289;3052179;-65
2023/05/22 11:12:21;;;;;;;2.50;1.20;;;;;;;27.38;36.87;99180.92;81076;1292;3052360;-64
2023/05/22 11:14:50;;;;;;;5.90;1.60;;;;;;;27.57;36.38;99178.30;81075;1290;3068815;-61
2023/05/22 11:17:29;;;;;;;4.80;1.50;;;;;;;27.73;35.87;99176.88;82371;1289;3013039;-64
2023/05/22 11:20:06;;;;;;;3.10;1.40;;;;;;;27.87;35.47;99181.39;81083;1289;3049894;-62
2023/05/22 11:22:36;;;;;;;6.00;1.50;;;;;;;27.95;35.00;99180.63;80969;1295;3052915;-64
2023/05/22 11:25:07;;;;;;;2.80;1.30;;;;;;;28.17;34.58;99180.15;82360;1291;3012875;-63
2023/05/22 11:27:36;;;;;;;4.90;1.50;;;;;;;28.22;34.44;99176.75;81125;1290;3052822;-63
2023/05/22 11:30:03;;;;;;;7.20;1.80;;;;;;;28.30;34.37;99175.10;82366;1289;3011426;-63